createdAt,value
2023-03-16T00:02:19.761Z,11.27
2023-03-16T00:04:47.706Z,11.37
2023-03-16T00:07:16.172Z,8.90
2023-03-16T00:09:44.398Z,9.57
2023-03-16T00:12:16.550Z,11.43
2023-03-16T00:14:46.987Z,9.63
2023-03-16T00:17:19.645Z,8.50
2023-03-16T00:19:54.837Z,11.50
2023-03-16T00:22:25.093Z,7.70
2023-03-16T00:24:53.251Z,12.67
2023-03-16T00:27:23.850Z,11.20
2023-03-16T00:29:57.042Z,9.67
2023-03-16T00:32:29.374Z,11.47
2023-03-16T00:34:58.112Z,9.43
2023-03-16T00:37:27.665Z,12.23
2023-03-16T00:39:56.836Z,10.60
2023-03-16T00:42:28.230Z,8.73
2023-03-16T00:44:57.306Z,11.13
2023-03-16T00:47:29.772Z,7.80
2023-03-16T00:49:58.529Z,9.77
2023-03-16T00:52:27.940Z,8.63
2023-03-16T00:54:56.665Z,9.10
2023-03-16T00:57:27.688Z,8.67
2023-03-16T00:59:56.585Z,8.40
2023-03-16T01:02:27.152Z,10.03
2023-03-16T01:04:55.076Z,11.83
2023-03-16T01:07:23.098Z,10.37
2023-03-16T01:09:51.851Z,9.87
2023-03-16T01:12:20.546Z,8.83
2023-03-16T01:14:48.619Z,11.60
2023-03-16T01:17:18.335Z,13.30
2023-03-16T01:19:47.480Z,9.30
2023-03-16T01:22:16.013Z,11.53
2023-03-16T01:24:45.259Z,8.40
2023-03-16T01:27:14.303Z,9.03
2023-03-16T01:29:43.562Z,10.27
2023-03-16T01:32:12.725Z,10.43
2023-03-16T01:34:41.475Z,10.40
2023-03-16T01:37:11.395Z,12.13
2023-03-16T01:39:45.139Z,8.52
2023-03-16T01:42:14.864Z,11.73
2023-03-16T01:44:56.126Z,11.33
2023-03-16T01:47:29.596Z,9.40
2023-03-16T01:49:57.792Z,8.73
2023-03-16T01:52:36.256Z,9.67
2023-03-16T01:55:09.003Z,8.73
2023-03-16T01:57:42.570Z,11.17
2023-03-16T02:00:23.500Z,8.83
2023-03-16T02:03:15.057Z,10.80
2023-03-16T02:05:57.734Z,11.73
2023-03-16T02:08:29.123Z,10.50
2023-03-16T02:10:57.565Z,11.73
2023-03-16T02:13:36.862Z,10.10
2023-03-16T02:16:08.525Z,9.00
2023-03-16T02:18:37.117Z,12.07
2023-03-16T02:21:16.268Z,9.17
2023-03-16T02:23:48.539Z,9.30
2023-03-16T02:26:33.446Z,11.83
2023-03-16T02:29:16.954Z,8.27
2023-03-16T02:31:48.540Z,8.57
2023-03-16T02:34:18.276Z,9.70
2023-03-16T02:36:52.169Z,9.37
2023-03-16T02:39:24.911Z,9.20
2023-03-16T02:41:53.190Z,7.33
2023-03-16T02:44:27.413Z,11.13
2023-03-16T02:47:03.080Z,9.83
2023-03-16T02:52:05.285Z,8.20
2023-03-16T02:54:33.332Z,9.03
2023-03-16T02:57:01.642Z,9.60
2023-03-16T02:59:31.215Z,7.20
2023-03-16T03:02:01.429Z,7.40
2023-03-16T03:04:29.368Z,8.83
2023-03-16T03:07:03.929Z,9.57
2023-03-16T03:09:36.171Z,7.53
2023-03-16T03:12:04.795Z,12.47
2023-03-16T03:14:33.475Z,7.67
2023-03-16T03:17:04.218Z,8.77
2023-03-16T03:19:33.884Z,9.20
2023-03-16T03:22:06.399Z,8.63
2023-03-16T03:24:34.709Z,9.97
2023-03-16T03:27:05.916Z,9.97
2023-03-16T03:29:37.259Z,9.93
2023-03-16T03:32:08.369Z,10.70
2023-03-16T03:34:36.459Z,8.70
2023-03-16T03:37:06.113Z,8.23
2023-03-16T03:39:34.058Z,8.10
2023-03-16T03:42:02.907Z,9.43
2023-03-16T03:44:34.609Z,8.10
2023-03-16T03:47:03.407Z,10.53
2023-03-16T03:49:33.323Z,8.47
2023-03-16T03:52:04.631Z,9.27
2023-03-16T03:54:32.584Z,7.70
2023-03-16T03:57:05.908Z,8.37
2023-03-16T03:59:35.050Z,9.03
2023-03-16T04:02:16.514Z,7.73
2023-03-16T04:04:55.038Z,7.20
2023-03-16T04:07:23.078Z,9.00
2023-03-16T04:09:54.901Z,9.93
2023-03-16T04:12:28.419Z,13.53
2023-03-16T04:14:56.966Z,8.33
2023-03-16T04:17:26.733Z,10.10
2023-03-16T04:19:58.491Z,8.13
2023-03-16T04:22:26.361Z,6.43
2023-03-16T04:24:54.122Z,8.53
2023-03-16T04:27:25.466Z,7.97
2023-03-16T04:29:58.511Z,8.57
2023-03-16T04:32:27.340Z,8.27
2023-03-16T04:34:58.151Z,9.77
2023-03-16T04:37:37.929Z,7.63
2023-03-16T04:40:15.669Z,8.03
2023-03-16T04:42:48.044Z,7.10
2023-03-16T04:45:19.917Z,8.13
2023-03-16T04:47:50.603Z,9.17
2023-03-16T04:50:20.368Z,8.60
2023-03-16T04:52:53.362Z,7.90
2023-03-16T04:55:22.953Z,6.87
2023-03-16T04:57:52.433Z,7.13
2023-03-16T05:00:23.576Z,6.47
2023-03-16T05:03:05.169Z,6.73
2023-03-16T05:05:35.036Z,6.50
2023-03-16T05:08:05.944Z,5.53
2023-03-16T05:10:35.344Z,7.37
2023-03-16T05:13:04.061Z,5.13
2023-03-16T05:15:33.147Z,6.63
2023-03-16T05:18:24.009Z,6.50
2023-03-16T05:20:56.123Z,7.53
2023-03-16T05:23:27.234Z,7.70
2023-03-16T05:26:00.952Z,6.47
2023-03-16T05:28:31.928Z,7.97
2023-03-16T05:31:06.506Z,8.77
2023-03-16T05:33:42.940Z,10.70
2023-03-16T05:36:17.580Z,6.97
2023-03-16T05:38:48.622Z,6.10
2023-03-16T05:41:27.840Z,6.87
2023-03-16T05:44:01.015Z,8.20
2023-03-16T05:46:39.046Z,6.43
2023-03-16T05:49:07.814Z,5.43
2023-03-16T05:51:36.933Z,6.50
2023-03-16T05:54:06.477Z,6.10
2023-03-16T05:56:43.107Z,5.53
2023-03-16T05:59:11.152Z,6.50
2023-03-16T06:01:39.931Z,8.13
2023-03-16T06:04:08.095Z,8.23
2023-03-16T06:06:42.029Z,6.00
2023-03-16T06:09:17.402Z,7.20
2023-03-16T06:11:45.409Z,6.37
2023-03-16T06:14:16.074Z,6.33
2023-03-16T06:16:45.138Z,6.57
2023-03-16T06:19:13.855Z,5.47
2023-03-16T06:21:43.889Z,9.27
2023-03-16T06:24:13.843Z,6.77
2023-03-16T06:26:41.731Z,6.00
2023-03-16T06:29:13.247Z,6.47
2023-03-16T06:31:42.478Z,7.43
2023-03-16T06:34:12.329Z,5.53
2023-03-16T06:36:41.117Z,7.00
2023-03-16T06:39:14.369Z,6.80
2023-03-16T06:41:44.268Z,7.53
2023-03-16T06:44:14.685Z,7.60
2023-03-16T06:46:53.468Z,7.43
2023-03-16T06:49:21.344Z,5.90
2023-03-16T06:51:49.461Z,5.57
2023-03-16T06:54:18.981Z,6.40
2023-03-16T06:56:46.903Z,6.23
2023-03-16T06:59:14.917Z,6.30
2023-03-16T07:01:44.351Z,6.30
2023-03-16T07:04:12.706Z,4.20
2023-03-16T07:06:41.735Z,6.57
2023-03-16T07:09:09.661Z,8.13
2023-03-16T07:11:38.960Z,5.60
2023-03-16T07:14:07.338Z,7.30
2023-03-16T07:16:36.284Z,6.63
2023-03-16T07:19:06.586Z,5.47
2023-03-16T07:21:39.867Z,5.60
2023-03-16T07:24:12.864Z,8.70
2023-03-16T07:26:43.499Z,5.30
2023-03-16T07:29:16.956Z,6.67
2023-03-16T07:31:45.389Z,6.60
2023-03-16T07:34:18.736Z,6.70
2023-03-16T07:36:52.898Z,6.87
2023-03-16T07:39:22.684Z,5.53
2023-03-16T07:41:54.280Z,7.00
2023-03-16T07:44:38.124Z,6.13
2023-03-16T07:47:07.113Z,6.57
2023-03-16T07:49:35.759Z,8.17
2023-03-16T07:52:03.882Z,7.73
2023-03-16T07:54:39.513Z,6.95
2023-03-16T07:57:10.051Z,6.47
2023-03-16T07:59:41.846Z,7.83
2023-03-16T08:02:14.913Z,8.13
2023-03-16T08:04:44.612Z,7.07
2023-03-16T08:07:15.527Z,8.57
2023-03-16T08:10:05.241Z,5.70
2023-03-16T08:12:42.475Z,8.17
2023-03-16T08:15:11.800Z,8.50
2023-03-16T08:17:41.809Z,7.63
2023-03-16T08:20:16.033Z,7.30
2023-03-16T08:22:46.572Z,7.73
2023-03-16T08:25:20.421Z,7.27
2023-03-16T08:28:01.564Z,7.43
2023-03-16T08:30:31.668Z,9.23
2023-03-16T08:33:23.012Z,8.23
2023-03-16T08:35:52.609Z,7.20
2023-03-16T08:38:20.607Z,7.50
2023-03-16T08:40:52.201Z,6.53
2023-03-16T08:43:24.124Z,8.00
2023-03-16T08:45:53.975Z,10.30
2023-03-16T08:48:25.826Z,8.87
2023-03-16T08:50:54.073Z,6.87
2023-03-16T08:53:21.857Z,6.17
2023-03-16T08:55:49.996Z,6.90
2023-03-16T08:58:17.856Z,7.77
2023-03-16T09:00:49.067Z,8.47
2023-03-16T09:03:18.075Z,7.10
2023-03-16T09:05:45.781Z,6.87
2023-03-16T09:08:13.712Z,6.53
2023-03-16T09:10:42.661Z,8.67
2023-03-16T09:13:10.879Z,7.27
2023-03-16T09:15:39.680Z,8.70
2023-03-16T09:18:08.951Z,6.27
2023-03-16T09:20:37.646Z,5.90
2023-03-16T09:23:05.710Z,6.50
2023-03-16T09:25:33.634Z,8.57
2023-03-16T09:28:01.513Z,6.93
2023-03-16T09:30:29.712Z,6.47
2023-03-16T09:32:57.771Z,6.80
2023-03-16T09:35:27.292Z,5.23
2023-03-16T09:38:05.668Z,6.27
2023-03-16T09:40:38.020Z,8.53
2023-03-16T09:43:28.033Z,7.77
2023-03-16T09:46:10.332Z,5.93
2023-03-16T09:48:41.218Z,6.43
2023-03-16T09:51:29.017Z,6.43
2023-03-16T09:54:04.197Z,6.13
2023-03-16T09:56:38.904Z,7.40
2023-03-16T09:59:13.562Z,6.45
2023-03-16T10:02:05.377Z,6.43
2023-03-16T10:04:51.123Z,7.83
2023-03-16T10:07:36.097Z,5.43
2023-03-16T10:10:22.409Z,6.30
2023-03-16T10:12:54.574Z,7.07
2023-03-16T10:15:27.397Z,7.03
2023-03-16T10:18:03.091Z,6.57
2023-03-16T10:23:17.387Z,6.23
2023-03-16T10:25:49.268Z,6.70
2023-03-16T10:28:20.610Z,6.40
2023-03-16T10:30:52.676Z,5.07
2023-03-16T10:33:27.833Z,5.07
2023-03-16T10:36:05.582Z,5.32
2023-03-16T10:38:43.126Z,6.63
2023-03-16T10:41:27.912Z,5.20
2023-03-16T10:44:00.275Z,4.30
2023-03-16T10:46:29.132Z,6.90
2023-03-16T10:49:00.839Z,4.87
2023-03-16T10:51:33.633Z,4.77
2023-03-16T10:54:14.852Z,6.13
2023-03-16T10:56:43.137Z,5.37
2023-03-16T10:59:25.742Z,4.67
2023-03-16T11:01:54.414Z,7.37
2023-03-16T11:04:22.875Z,4.93
2023-03-16T11:06:55.410Z,7.17
2023-03-16T11:09:32.897Z,5.87
2023-03-16T11:12:14.022Z,5.80
2023-03-16T11:14:45.259Z,5.53
2023-03-16T11:17:18.669Z,6.07
2023-03-16T11:19:57.665Z,5.17
2023-03-16T11:22:27.441Z,7.20
2023-03-16T11:25:12.516Z,5.93
2023-03-16T11:27:49.025Z,4.97
2023-03-16T11:30:25.743Z,6.03
2023-03-16T11:32:54.228Z,5.63
2023-03-16T11:35:34.973Z,5.03
2023-03-16T11:38:16.797Z,5.57
2023-03-16T11:40:58.401Z,4.20
2023-03-16T11:43:51.988Z,4.47
2023-03-16T11:46:25.247Z,4.97
2023-03-16T11:49:38.262Z,4.47
2023-03-16T11:52:23.444Z,4.70
2023-03-16T11:55:09.180Z,5.38
2023-03-16T11:57:57.314Z,6.17
2023-03-16T12:00:40.549Z,4.87
2023-03-16T12:04:02.147Z,5.33
2023-03-16T12:06:53.369Z,4.03
2023-03-16T12:09:57.248Z,4.60
2023-03-16T12:12:45.492Z,4.23
2023-03-16T12:15:29.698Z,5.87
2023-03-16T12:18:02.783Z,5.80
2023-03-16T12:20:44.291Z,4.53
2023-03-16T12:23:22.605Z,4.37
2023-03-16T12:25:53.382Z,4.17
2023-03-16T12:28:25.890Z,4.73
2023-03-16T12:31:09.330Z,3.73
2023-03-16T12:34:01.866Z,4.80
2023-03-16T12:36:57.720Z,4.70
2023-03-16T12:39:41.416Z,5.13
2023-03-16T12:42:33.010Z,5.60
2023-03-16T12:45:11.089Z,5.43
2023-03-16T12:47:57.913Z,3.93
2023-03-16T12:50:26.097Z,4.23
2023-03-16T12:52:54.325Z,3.30
2023-03-16T12:55:39.144Z,4.40
2023-03-16T12:58:09.468Z,4.90
2023-03-16T13:00:42.617Z,4.20
2023-03-16T13:03:17.095Z,3.57
2023-03-16T13:05:49.744Z,4.50
2023-03-16T13:08:21.223Z,5.20
2023-03-16T13:11:05.689Z,7.03
2023-03-16T13:13:34.227Z,4.40
2023-03-16T13:16:10.015Z,4.60
2023-03-16T13:18:44.760Z,3.75
2023-03-16T13:21:20.361Z,7.13
2023-03-16T13:23:59.945Z,4.17
2023-03-16T13:26:40.788Z,3.77
2023-03-16T13:29:23.916Z,4.53
2023-03-16T13:31:56.392Z,3.50
2023-03-16T13:34:44.647Z,3.87
2023-03-16T13:37:19.347Z,4.37
2023-03-16T13:39:54.435Z,5.10
2023-03-16T13:42:25.720Z,4.75
2023-03-16T13:44:55.823Z,6.93
2023-03-16T13:47:27.794Z,3.27
2023-03-16T13:49:59.099Z,4.67
2023-03-16T13:52:31.646Z,3.90
2023-03-16T13:55:04.273Z,4.23
2023-03-16T13:57:38.947Z,4.83
2023-03-16T14:00:23.995Z,4.10
2023-03-16T14:03:04.552Z,5.78
2023-03-16T14:05:35.814Z,4.73
2023-03-16T14:08:19.586Z,3.63
2023-03-16T14:10:58.641Z,3.63
2023-03-16T14:13:36.286Z,5.25
2023-03-16T14:18:57.653Z,3.80
2023-03-16T14:21:29.208Z,3.87
2023-03-16T14:24:00.126Z,3.73
2023-03-16T14:29:30.555Z,4.10
2023-03-16T14:32:01.004Z,3.47
2023-03-16T14:37:26.304Z,6.07
2023-03-16T14:40:08.304Z,4.90
2023-03-16T14:42:40.592Z,4.23
2023-03-16T14:45:15.466Z,4.78
2023-03-16T14:48:03.006Z,3.53
2023-03-16T14:50:35.722Z,4.67
2023-03-16T14:53:06.351Z,3.97
2023-03-16T14:55:41.937Z,5.10
2023-03-16T14:58:10.498Z,3.75
2023-03-16T15:03:54.886Z,3.93
2023-03-16T15:06:26.524Z,3.40
2023-03-16T15:08:59.194Z,5.10
2023-03-16T15:11:30.998Z,4.33
2023-03-16T15:14:14.511Z,3.50
2023-03-16T15:16:48.839Z,5.23
2023-03-16T15:19:17.343Z,4.60
2023-03-16T15:22:16.360Z,4.60
2023-03-16T15:24:46.879Z,2.73
2023-03-16T15:27:29.905Z,4.93
2023-03-16T15:30:15.831Z,4.23
2023-03-16T15:32:46.781Z,4.27
2023-03-16T15:35:16.823Z,4.23
2023-03-16T15:37:47.374Z,3.00
2023-03-16T15:40:21.843Z,4.70
2023-03-16T15:42:53.818Z,3.70
2023-03-16T15:45:45.602Z,5.47
2023-03-16T15:48:17.463Z,4.47
2023-03-16T15:50:53.242Z,3.50
2023-03-16T15:56:29.810Z,3.37
2023-03-16T15:59:06.013Z,3.60
2023-03-16T16:01:51.733Z,4.40
2023-03-16T16:04:25.026Z,4.50
2023-03-16T16:06:58.605Z,4.50
2023-03-16T16:09:27.917Z,4.93
2023-03-16T16:12:02.624Z,5.23
2023-03-16T16:17:50.707Z,4.63
2023-03-16T16:20:34.354Z,3.27
2023-03-16T16:23:03.696Z,4.03
2023-03-16T16:25:40.587Z,4.00
2023-03-16T16:28:17.752Z,3.93
2023-03-16T16:30:50.194Z,4.97
2023-03-16T16:36:43.697Z,4.10
2023-03-16T16:39:31.742Z,4.53
2023-03-16T16:42:02.003Z,3.97
2023-03-16T16:44:34.347Z,4.30
2023-03-16T16:47:20.077Z,4.47
2023-03-16T16:52:47.097Z,3.83
2023-03-16T16:55:43.523Z,6.33
2023-03-16T16:58:24.208Z,4.77
2023-03-16T17:01:47.540Z,5.53
2023-03-16T17:04:28.756Z,4.83
2023-03-16T17:07:01.958Z,3.93
2023-03-16T17:09:39.505Z,4.13
2023-03-16T17:12:28.661Z,4.63
2023-03-16T17:15:00.765Z,5.80
2023-03-16T17:17:29.606Z,4.80
2023-03-16T17:19:57.688Z,4.17
2023-03-16T17:22:30.477Z,6.47
2023-03-16T17:25:21.105Z,4.93
2023-03-16T17:27:52.746Z,3.20
2023-03-16T17:30:27.845Z,5.27
2023-03-16T17:33:04.655Z,7.10
2023-03-16T17:35:32.720Z,3.77
2023-03-16T17:38:00.775Z,5.20
2023-03-16T17:40:29.457Z,5.33
2023-03-16T17:42:57.466Z,3.83
2023-03-16T17:45:28.791Z,4.57
2023-03-16T17:47:57.048Z,4.13
2023-03-16T17:50:29.306Z,5.67
2023-03-16T17:52:57.428Z,4.57
2023-03-16T17:55:25.855Z,3.83
2023-03-16T17:57:55.448Z,4.57
2023-03-16T18:00:32.283Z,3.93
2023-03-16T18:03:03.058Z,4.43
2023-03-16T18:05:36.514Z,4.80
2023-03-16T18:08:16.710Z,7.03
2023-03-16T18:10:47.425Z,6.13
2023-03-16T18:13:23.621Z,5.80
2023-03-16T18:15:58.650Z,4.67
2023-03-16T18:18:36.725Z,6.75
2023-03-16T18:21:09.024Z,4.13
2023-03-16T18:23:46.333Z,4.30
2023-03-16T18:26:18.855Z,5.67
2023-03-16T18:28:53.534Z,5.07
2023-03-16T18:46:33.284Z,4.63
2023-03-16T18:49:14.295Z,5.30
2023-03-16T18:51:51.282Z,4.97
2023-03-16T18:54:29.179Z,4.57
2023-03-16T18:59:41.648Z,6.17
2023-03-16T19:02:31.906Z,8.40
2023-03-16T19:07:56.990Z,4.30
2023-03-16T19:10:43.655Z,5.38
2023-03-16T19:20:19.261Z,5.67
2023-03-16T19:27:51.253Z,6.70
2023-03-16T19:30:45.166Z,4.87
2023-03-16T19:40:38.410Z,5.77
2023-03-16T19:43:29.508Z,6.23
2023-03-16T19:46:49.067Z,7.27
2023-03-16T19:56:02.081Z,5.43
2023-03-16T20:09:15.577Z,7.10
2023-03-16T20:15:11.377Z,7.10
2023-03-16T20:18:26.956Z,6.17
2023-03-16T20:20:59.242Z,5.33
2023-03-16T20:23:39.972Z,5.07
2023-03-16T20:26:50.245Z,4.13
2023-03-16T20:32:39.902Z,5.18
2023-03-16T20:35:17.045Z,4.80
2023-03-16T20:37:48.870Z,7.23
2023-03-16T20:40:36.682Z,7.03
2023-03-16T20:43:33.326Z,5.60
2023-03-16T20:46:06.709Z,5.47
2023-03-16T20:51:41.861Z,5.43
2023-03-16T20:54:15.035Z,6.13
2023-03-16T20:56:46.669Z,6.23
2023-03-16T20:59:20.511Z,6.60
2023-03-16T21:01:51.903Z,4.53
2023-03-16T21:04:25.917Z,4.60
2023-03-16T21:06:57.730Z,6.27
2023-03-16T21:09:37.317Z,5.33
2023-03-16T21:15:26.779Z,5.13
2023-03-16T21:23:50.481Z,8.43
2023-03-16T21:26:38.482Z,5.53
2023-03-16T21:29:13.668Z,8.40
2023-03-16T21:31:44.540Z,6.15
2023-03-16T21:34:32.882Z,6.43
2023-03-16T21:37:26.563Z,5.17
2023-03-16T21:39:56.058Z,6.23
2023-03-16T21:42:40.454Z,9.73
2023-03-16T21:45:12.939Z,6.00
2023-03-16T21:52:11.566Z,5.63
2023-03-16T21:54:46.542Z,7.83
2023-03-16T21:57:23.218Z,5.80
2023-03-16T22:00:01.337Z,7.90
2023-03-16T22:02:34.670Z,6.33
2023-03-16T22:05:37.532Z,5.60
2023-03-16T22:08:26.060Z,6.10
2023-03-16T22:14:12.164Z,6.83
2023-03-16T22:17:22.758Z,7.50
2023-03-16T22:20:16.810Z,6.93
2023-03-16T22:23:00.261Z,8.17
2023-03-16T22:28:04.299Z,6.47
2023-03-16T22:30:54.700Z,7.20
2023-03-16T22:36:53.191Z,8.73
2023-03-16T22:42:42.898Z,7.20
2023-03-16T22:45:34.060Z,6.50
2023-03-16T22:48:47.860Z,7.50
2023-03-16T22:51:28.366Z,5.63
2023-03-16T22:54:02.753Z,7.40
2023-03-16T22:56:34.708Z,6.87
2023-03-16T22:59:07.945Z,6.70
2023-03-16T23:01:40.929Z,7.93
2023-03-16T23:04:15.240Z,6.23
2023-03-16T23:06:43.472Z,6.43
2023-03-16T23:09:13.745Z,6.50
2023-03-16T23:11:47.992Z,7.00
2023-03-16T23:14:20.949Z,6.73
2023-03-16T23:16:52.503Z,5.93
2023-03-16T23:19:25.617Z,6.87
2023-03-16T23:21:57.784Z,7.50
2023-03-16T23:24:27.664Z,5.93
2023-03-16T23:27:01.683Z,6.07
2023-03-16T23:29:31.127Z,5.70
2023-03-16T23:31:58.969Z,6.20
2023-03-16T23:34:29.254Z,5.33
2023-03-16T23:36:58.195Z,7.97
2023-03-16T23:39:26.443Z,5.27
2023-03-16T23:41:55.088Z,5.87
2023-03-16T23:44:28.863Z,6.33
2023-03-16T23:47:00.774Z,5.90
2023-03-16T23:49:32.598Z,7.63
2023-03-16T23:52:02.070Z,5.53
2023-03-16T23:54:33.239Z,7.23
2023-03-16T23:57:02.720Z,5.67
2023-03-16T23:59:33.137Z,4.83
